sensor_id;sensor_type;location;lat;lon;timestamp;pressure;altitude;pressure_sealevel;temperature;humidity
61484;BME280;47349;55.640;37.692;2023-04-25T05:26:26;99000.28;;;14.77;55.45
61484;BME280;47349;55.640;37.692;2023-04-25T05:29:06;98989.22;;;14.85;55.06
61484;BME280;47349;55.640;37.692;2023-04-25T05:31:44;98998.38;;;14.84;54.64
61484;BME280;47349;55.640;37.692;2023-04-25T05:34:15;98994.13;;;14.95;54.78
61484;BME280;47349;55.640;37.692;2023-04-25T05:36:50;98998.78;;;15.06;54.61
61484;BME280;47349;55.640;37.692;2023-04-25T05:39:18;98995.81;;;15.14;53.60
61484;BME280;47349;55.640;37.692;2023-04-25T05:42:11;99006.69;;;15.26;53.22
61484;BME280;47349;55.640;37.692;2023-04-25T05:44:44;99010.69;;;15.24;53.98
61484;BME280;47349;55.640;37.692;2023-04-25T05:47:25;98996.38;;;15.23;53.51
61484;BME280;47349;55.640;37.692;2023-04-25T05:50:02;98996.06;;;15.31;53.15
61484;BME280;47349;55.640;37.692;2023-04-25T05:52:47;98985.78;;;15.40;52.77
61484;BME280;47349;55.640;37.692;2023-04-25T05:55:26;98995.41;;;15.54;52.92
61484;BME280;47349;55.640;37.692;2023-04-25T05:58:13;98980.41;;;15.58;53.22
61484;BME280;47349;55.640;37.692;2023-04-25T06:00:41;98994.81;;;15.71;52.23
61484;BME280;47349;55.640;37.692;2023-04-25T06:03:23;98979.13;;;15.79;51.65
61484;BME280;47349;55.640;37.692;2023-04-25T06:05:57;98969.44;;;15.90;50.82
61484;BME280;47349;55.640;37.692;2023-04-25T06:08:25;98956.97;;;15.89;49.73
61484;BME280;47349;55.640;37.692;2023-04-25T06:13:57;98966.69;;;16.08;49.04
61484;BME280;47349;55.640;37.692;2023-04-25T06:16:36;98937.53;;;15.99;48.48
61484;BME280;47349;55.640;37.692;2023-04-25T06:19:04;98961.94;;;16.22;48.71
61484;BME280;47349;55.640;37.692;2023-04-25T06:21:31;98955.81;;;16.15;48.41
61484;BME280;47349;55.640;37.692;2023-04-25T06:23:58;98948.53;;;16.15;48.82
61484;BME280;47349;55.640;37.692;2023-04-25T06:26:27;98962.38;;;16.19;48.71
61484;BME280;47349;55.640;37.692;2023-04-25T06:29:10;98965.97;;;16.31;48.23
61484;BME280;47349;55.640;37.692;2023-04-25T06:31:37;98954.53;;;16.29;47.04
61484;BME280;47349;55.640;37.692;2023-04-25T06:34:42;98948.09;;;16.30;47.64
61484;BME280;47349;55.640;37.692;2023-04-25T06:37:10;98947.16;;;16.36;47.87
61484;BME280;47349;55.640;37.692;2023-04-25T06:39:51;98961.91;;;16.52;46.71
61484;BME280;47349;55.640;37.692;2023-04-25T06:42:18;98975.56;;;16.57;47.25
61484;BME280;47349;55.640;37.692;2023-04-25T06:44:52;98939.31;;;16.47;47.13
61484;BME280;47349;55.640;37.692;2023-04-25T06:47:20;98941.00;;;16.59;46.77
61484;BME280;47349;55.640;37.692;2023-04-25T06:49:48;98953.09;;;16.57;46.63
61484;BME280;47349;55.640;37.692;2023-04-25T06:52:16;98954.53;;;16.71;46.35
61484;BME280;47349;55.640;37.692;2023-04-25T06:54:46;98942.47;;;16.74;46.23
61484;BME280;47349;55.640;37.692;2023-04-25T06:57:24;98962.94;;;16.93;45.96
61484;BME280;47349;55.640;37.692;2023-04-25T06:59:53;98946.59;;;16.88;45.71
61484;BME280;47349;55.640;37.692;2023-04-25T07:02:20;98958.72;;;16.97;44.62
61484;BME280;47349;55.640;37.692;2023-04-25T07:04:52;98967.19;;;17.12;44.05
61484;BME280;47349;55.640;37.692;2023-04-25T07:07:19;98956.56;;;17.11;43.93
61484;BME280;47349;55.640;37.692;2023-04-25T07:09:53;98959.78;;;17.08;44.54
61484;BME280;47349;55.640;37.692;2023-04-25T07:12:22;98921.97;;;17.01;44.39
61484;BME280;47349;55.640;37.692;2023-04-25T07:14:59;98958.34;;;17.29;43.76
61484;BME280;47349;55.640;37.692;2023-04-25T07:17:44;98943.63;;;17.25;43.53
61484;BME280;47349;55.640;37.692;2023-04-25T07:20:25;98964.47;;;17.36;43.82
61484;BME280;47349;55.640;37.692;2023-04-25T07:22:57;98961.28;;;17.39;44.37
61484;BME280;47349;55.640;37.692;2023-04-25T07:25:29;98964.34;;;17.42;45.28
61484;BME280;47349;55.640;37.692;2023-04-25T07:27:58;98963.97;;;17.39;45.19
61484;BME280;47349;55.640;37.692;2023-04-25T07:30:26;98961.63;;;17.31;44.53
61484;BME280;47349;55.640;37.692;2023-04-25T07:32:54;98964.69;;;17.34;43.69
61484;BME280;47349;55.640;37.692;2023-04-25T07:35:31;98953.50;;;17.31;43.99
61484;BME280;47349;55.640;37.692;2023-04-25T07:37:58;98947.75;;;17.27;44.31
61484;BME280;47349;55.640;37.692;2023-04-25T07:40:26;98954.09;;;17.33;44.00
61484;BME280;47349;55.640;37.692;2023-04-25T07:42:59;98967.25;;;17.53;43.39
61484;BME280;47349;55.640;37.692;2023-04-25T07:45:43;98955.09;;;17.67;43.41
61484;BME280;47349;55.640;37.692;2023-04-25T07:48:16;98948.50;;;17.63;42.81
61484;BME280;47349;55.640;37.692;2023-04-25T07:50:43;98959.94;;;17.65;42.87
61484;BME280;47349;55.640;37.692;2023-04-25T07:53:10;98962.75;;;17.70;42.56
61484;BME280;47349;55.640;37.692;2023-04-25T07:55:45;98952.47;;;17.84;42.34
61484;BME280;47349;55.640;37.692;2023-04-25T07:58:16;98959.13;;;18.05;42.00
61484;BME280;47349;55.640;37.692;2023-04-25T08:00:52;98954.25;;;18.18;41.42
61484;BME280;47349;55.640;37.692;2023-04-25T08:03:46;98963.88;;;18.26;41.07
61484;BME280;47349;55.640;37.692;2023-04-25T08:06:20;98964.94;;;18.25;40.49
61484;BME280;47349;55.640;37.692;2023-04-25T08:09:11;98962.38;;;18.47;40.91
61484;BME280;47349;55.640;37.692;2023-04-25T08:11:41;98928.31;;;18.39;40.88
61484;BME280;47349;55.640;37.692;2023-04-25T08:14:12;98951.81;;;18.50;41.26
61484;BME280;47349;55.640;37.692;2023-04-25T08:16:41;98948.53;;;18.65;40.80
61484;BME280;47349;55.640;37.692;2023-04-25T08:19:10;98948.09;;;18.68;41.28
61484;BME280;47349;55.640;37.692;2023-04-25T08:21:37;98957.66;;;18.59;41.02
61484;BME280;47349;55.640;37.692;2023-04-25T08:24:09;98954.63;;;18.56;41.41
61484;BME280;47349;55.640;37.692;2023-04-25T08:26:39;98941.63;;;18.58;41.23
61484;BME280;47349;55.640;37.692;2023-04-25T08:29:09;98938.03;;;18.69;40.82
61484;BME280;47349;55.640;37.692;2023-04-25T08:31:39;98899.44;;;18.50;40.55
61484;BME280;47349;55.640;37.692;2023-04-25T08:34:07;98910.38;;;18.38;40.97
61484;BME280;47349;55.640;37.692;2023-04-25T08:37:01;98941.78;;;18.51;41.16
61484;BME280;47349;55.640;37.692;2023-04-25T08:39:49;98929.47;;;18.43;41.63
61484;BME280;47349;55.640;37.692;2023-04-25T08:42:48;98918.34;;;18.45;40.63
61484;BME280;47349;55.640;37.692;2023-04-25T08:45:17;98928.38;;;18.61;40.26
61484;BME280;47349;55.640;37.692;2023-04-25T08:47:47;98930.28;;;18.61;40.13
61484;BME280;47349;55.640;37.692;2023-04-25T08:50:16;98919.19;;;18.62;40.38
61484;BME280;47349;55.640;37.692;2023-04-25T08:52:45;98901.59;;;18.48;39.83
61484;BME280;47349;55.640;37.692;2023-04-25T08:55:15;98903.97;;;18.44;40.00
61484;BME280;47349;55.640;37.692;2023-04-25T08:57:43;98925.50;;;18.51;39.63
61484;BME280;47349;55.640;37.692;2023-04-25T09:00:12;98908.22;;;18.40;39.34
61484;BME280;47349;55.640;37.692;2023-04-25T09:02:44;98919.75;;;18.47;39.58
61484;BME280;47349;55.640;37.692;2023-04-25T09:05:14;98911.72;;;18.53;39.44
61484;BME280;47349;55.640;37.692;2023-04-25T09:07:42;98904.94;;;18.55;38.35
61484;BME280;47349;55.640;37.692;2023-04-25T09:10:10;98898.53;;;18.44;38.04
61484;BME280;47349;55.640;37.692;2023-04-25T09:12:39;98899.69;;;18.48;37.96
61484;BME280;47349;55.640;37.692;2023-04-25T09:15:10;98904.22;;;18.60;38.15
61484;BME280;47349;55.640;37.692;2023-04-25T09:18:07;98896.19;;;18.82;38.01
61484;BME280;47349;55.640;37.692;2023-04-25T09:20:42;98886.03;;;18.94;37.83
61484;BME280;47349;55.640;37.692;2023-04-25T09:23:30;98895.97;;;19.05;36.68
61484;BME280;47349;55.640;37.692;2023-04-25T09:26:07;98882.78;;;19.14;36.20
61484;BME280;47349;55.640;37.692;2023-04-25T09:28:35;98873.72;;;19.08;35.91
61484;BME280;47349;55.640;37.692;2023-04-25T09:31:03;98871.81;;;19.25;36.62
61484;BME280;47349;55.640;37.692;2023-04-25T09:33:41;98891.47;;;19.55;36.09
61484;BME280;47349;55.640;37.692;2023-04-25T09:36:26;98893.91;;;19.56;36.43
61484;BME280;47349;55.640;37.692;2023-04-25T09:39:17;98879.66;;;19.44;36.70
61484;BME280;47349;55.640;37.692;2023-04-25T09:41:55;98882.53;;;19.37;36.62
61484;BME280;47349;55.640;37.692;2023-04-25T09:44:23;98879.13;;;19.47;36.11
61484;BME280;47349;55.640;37.692;2023-04-25T09:46:55;98860.78;;;19.37;35.96
61484;BME280;47349;55.640;37.692;2023-04-25T09:49:27;98859.06;;;19.53;36.16
61484;BME280;47349;55.640;37.692;2023-04-25T09:52:04;98838.69;;;19.29;35.73
61484;BME280;47349;55.640;37.692;2023-04-25T09:54:38;98866.53;;;19.19;35.92
61484;BME280;47349;55.640;37.692;2023-04-25T09:57:23;98857.50;;;18.91;36.18
61484;BME280;47349;55.640;37.692;2023-04-25T10:00:06;98862.47;;;18.99;36.78
61484;BME280;47349;55.640;37.692;2023-04-25T10:02:47;98845.69;;;19.03;36.98
61484;BME280;47349;55.640;37.692;2023-04-25T10:05:51;98837.38;;;19.31;36.82
61484;BME280;47349;55.640;37.692;2023-04-25T10:08:19;98839.00;;;19.54;35.86
61484;BME280;47349;55.640;37.692;2023-04-25T10:10:50;98859.59;;;19.72;35.06
61484;BME280;47349;55.640;37.692;2023-04-25T10:13:18;98862.19;;;19.84;35.21
61484;BME280;47349;55.640;37.692;2023-04-25T10:15:46;98853.34;;;19.98;34.41
61484;BME280;47349;55.640;37.692;2023-04-25T10:18:15;98841.03;;;19.64;34.18
61484;BME280;47349;55.640;37.692;2023-04-25T10:20:45;98830.50;;;19.72;34.72
61484;BME280;47349;55.640;37.692;2023-04-25T10:23:13;98841.25;;;19.84;35.12
61484;BME280;47349;55.640;37.692;2023-04-25T10:25:42;98837.75;;;19.89;35.10
61484;BME280;47349;55.640;37.692;2023-04-25T10:28:10;98831.91;;;19.75;35.20
61484;BME280;47349;55.640;37.692;2023-04-25T10:30:37;98831.72;;;19.87;35.54
61484;BME280;47349;55.640;37.692;2023-04-25T10:33:17;98832.22;;;20.11;35.68
61484;BME280;47349;55.640;37.692;2023-04-25T10:35:45;98828.97;;;20.09;36.15
61484;BME280;47349;55.640;37.692;2023-04-25T10:38:16;98833.19;;;19.94;35.84
61484;BME280;47349;55.640;37.692;2023-04-25T10:41:02;98809.44;;;19.85;36.38
61484;BME280;47349;55.640;37.692;2023-04-25T10:45:59;98825.13;;;20.05;35.59
61484;BME280;47349;55.640;37.692;2023-04-25T10:48:30;98806.69;;;20.12;35.44
61484;BME280;47349;55.640;37.692;2023-04-25T10:51:10;98809.22;;;20.23;35.03
61484;BME280;47349;55.640;37.692;2023-04-25T10:53:37;98809.88;;;20.36;34.73
61484;BME280;47349;55.640;37.692;2023-04-25T10:56:18;98813.44;;;20.41;34.71
61484;BME280;47349;55.640;37.692;2023-04-25T10:58:46;98803.50;;;20.25;35.15
61484;BME280;47349;55.640;37.692;2023-04-25T11:01:21;98793.16;;;20.22;35.17
61484;BME280;47349;55.640;37.692;2023-04-25T11:03:57;98801.66;;;20.31;35.28
61484;BME280;47349;55.640;37.692;2023-04-25T11:06:42;98793.16;;;20.22;35.03
61484;BME280;47349;55.640;37.692;2023-04-25T11:09:13;98774.97;;;19.95;35.57
61484;BME280;47349;55.640;37.692;2023-04-25T11:11:54;98788.22;;;19.87;35.85
61484;BME280;47349;55.640;37.692;2023-04-25T11:14:30;98791.69;;;20.09;35.66
61484;BME280;47349;55.640;37.692;2023-04-25T11:17:00;98778.38;;;19.81;35.43
61484;BME280;47349;55.640;37.692;2023-04-25T11:19:30;98759.78;;;19.67;35.39
61484;BME280;47349;55.640;37.692;2023-04-25T11:21:59;98774.75;;;19.70;35.55
61484;BME280;47349;55.640;37.692;2023-04-25T11:24:35;98751.75;;;19.56;35.82
61484;BME280;47349;55.640;37.692;2023-04-25T11:27:04;98772.91;;;19.75;36.18
61484;BME280;47349;55.640;37.692;2023-04-25T11:29:42;98761.38;;;19.95;35.93
61484;BME280;47349;55.640;37.692;2023-04-25T11:32:09;98756.16;;;19.89;36.67
61484;BME280;47349;55.640;37.692;2023-04-25T11:34:52;98750.94;;;19.82;36.76
61484;BME280;47349;55.640;37.692;2023-04-25T11:37:21;98754.81;;;19.91;36.64
61484;BME280;47349;55.640;37.692;2023-04-25T11:39:49;98750.41;;;19.85;37.03
61484;BME280;47349;55.640;37.692;2023-04-25T11:42:16;98752.69;;;19.93;36.32
61484;BME280;47349;55.640;37.692;2023-04-25T11:44:44;98741.63;;;19.73;35.87
61484;BME280;47349;55.640;37.692;2023-04-25T11:47:12;98742.19;;;19.75;36.10
61484;BME280;47349;55.640;37.692;2023-04-25T11:49:39;98739.69;;;19.68;36.64
61484;BME280;47349;55.640;37.692;2023-04-25T11:52:06;98755.00;;;19.80;36.42
61484;BME280;47349;55.640;37.692;2023-04-25T11:54:36;98730.84;;;19.83;36.12
61484;BME280;47349;55.640;37.692;2023-04-25T11:57:04;98744.00;;;20.01;36.11
61484;BME280;47349;55.640;37.692;2023-04-25T11:59:31;98730.22;;;20.08;36.09
61484;BME280;47349;55.640;37.692;2023-04-25T12:01:58;98733.06;;;20.28;36.22
61484;BME280;47349;55.640;37.692;2023-04-25T12:04:30;98724.69;;;20.40;36.07
61484;BME280;47349;55.640;37.692;2023-04-25T12:06:59;98718.22;;;20.46;35.96
61484;BME280;47349;55.640;37.692;2023-04-25T12:09:31;98705.28;;;20.69;35.68
61484;BME280;47349;55.640;37.692;2023-04-25T12:12:00;98723.91;;;20.92;35.56
61484;BME280;47349;55.640;37.692;2023-04-25T12:14:33;98714.41;;;21.00;35.47
61484;BME280;47349;55.640;37.692;2023-04-25T12:17:02;98690.72;;;21.05;35.48
61484;BME280;47349;55.640;37.692;2023-04-25T12:19:34;98690.19;;;21.09;35.25
61484;BME280;47349;55.640;37.692;2023-04-25T12:22:23;98707.03;;;21.00;35.51
61484;BME280;47349;55.640;37.692;2023-04-25T12:24:50;98685.50;;;20.94;35.26
61484;BME280;47349;55.640;37.692;2023-04-25T12:27:21;98682.50;;;20.90;35.59
61484;BME280;47349;55.640;37.692;2023-04-25T12:29:55;98692.56;;;20.85;35.98
61484;BME280;47349;55.640;37.692;2023-04-25T12:32:23;98685.69;;;20.72;35.85
61484;BME280;47349;55.640;37.692;2023-04-25T12:34:51;98672.56;;;20.59;35.66
61484;BME280;47349;55.640;37.692;2023-04-25T12:37:18;98673.16;;;20.71;35.59
61484;BME280;47349;55.640;37.692;2023-04-25T12:39:45;98669.91;;;20.79;35.12
61484;BME280;47349;55.640;37.692;2023-04-25T12:42:12;98654.75;;;21.03;35.36
61484;BME280;47349;55.640;37.692;2023-04-25T12:44:40;98669.50;;;21.28;34.42
61484;BME280;47349;55.640;37.692;2023-04-25T12:47:08;98663.00;;;21.39;34.67
61484;BME280;47349;55.640;37.692;2023-04-25T12:49:35;98636.28;;;21.36;34.45
61484;BME280;47349;55.640;37.692;2023-04-25T12:52:02;98655.00;;;21.07;35.48
61484;BME280;47349;55.640;37.692;2023-04-25T12:54:30;98660.97;;;20.89;35.57
61484;BME280;47349;55.640;37.692;2023-04-25T12:56:58;98655.41;;;20.58;36.01
61484;BME280;47349;55.640;37.692;2023-04-25T12:59:26;98645.34;;;20.59;36.31
61484;BME280;47349;55.640;37.692;2023-04-25T13:01:53;98640.84;;;20.32;36.49
61484;BME280;47349;55.640;37.692;2023-04-25T13:04:20;98623.88;;;20.15;37.06
61484;BME280;47349;55.640;37.692;2023-04-25T13:06:53;98645.72;;;20.30;37.33
61484;BME280;47349;55.640;37.692;2023-04-25T13:09:20;98641.44;;;20.44;36.78
61484;BME280;47349;55.640;37.692;2023-04-25T13:11:47;98640.44;;;20.56;36.97
61484;BME280;47349;55.640;37.692;2023-04-25T13:14:14;98632.09;;;20.88;36.38
61484;BME280;47349;55.640;37.692;2023-04-25T13:16:42;98607.06;;;21.11;35.95
61484;BME280;47349;55.640;37.692;2023-04-25T13:19:09;98624.84;;;21.54;35.43
61484;BME280;47349;55.640;37.692;2023-04-25T13:21:38;98611.19;;;21.75;34.84
61484;BME280;47349;55.640;37.692;2023-04-25T13:24:06;98601.38;;;21.64;35.21
61484;BME280;47349;55.640;37.692;2023-04-25T13:26:34;98598.91;;;21.77;34.27
61484;BME280;47349;55.640;37.692;2023-04-25T13:29:01;98614.97;;;21.99;34.07
61484;BME280;47349;55.640;37.692;2023-04-25T13:31:31;98611.44;;;21.94;34.17
61484;BME280;47349;55.640;37.692;2023-04-25T13:33:58;98601.13;;;21.60;34.09
61484;BME280;47349;55.640;37.692;2023-04-25T13:36:26;98607.94;;;21.68;34.17
61484;BME280;47349;55.640;37.692;2023-04-25T13:38:54;98588.28;;;21.76;32.93
61484;BME280;47349;55.640;37.692;2023-04-25T13:41:22;98591.22;;;22.00;33.34
61484;BME280;47349;55.640;37.692;2023-04-25T13:43:49;98589.81;;;22.23;32.86
61484;BME280;47349;55.640;37.692;2023-04-25T13:46:19;98582.16;;;22.30;32.27
61484;BME280;47349;55.640;37.692;2023-04-25T13:49:06;98586.22;;;22.38;31.67
61484;BME280;47349;55.640;37.692;2023-04-25T13:51:39;98566.66;;;22.00;32.08
61484;BME280;47349;55.640;37.692;2023-04-25T13:54:07;98558.75;;;21.98;32.30
61484;BME280;47349;55.640;37.692;2023-04-25T13:56:34;98579.97;;;22.27;32.40
61484;BME280;47349;55.640;37.692;2023-04-25T13:59:08;98562.22;;;22.35;32.61
61484;BME280;47349;55.640;37.692;2023-04-25T14:01:35;98562.56;;;22.67;32.36
61484;BME280;47349;55.640;37.692;2023-04-25T14:04:06;98567.34;;;22.96;31.78
61484;BME280;47349;55.640;37.692;2023-04-25T14:06:34;98552.34;;;22.88;31.62
61484;BME280;47349;55.640;37.692;2023-04-25T14:09:01;98563.34;;;23.22;31.55
61484;BME280;47349;55.640;37.692;2023-04-25T14:11:30;98548.25;;;23.25;31.20
61484;BME280;47349;55.640;37.692;2023-04-25T14:13:57;98540.91;;;23.20;30.92
61484;BME280;47349;55.640;37.692;2023-04-25T14:16:24;98545.78;;;22.94;31.09
61484;BME280;47349;55.640;37.692;2023-04-25T14:18:52;98534.50;;;22.56;31.38
61484;BME280;47349;55.640;37.692;2023-04-25T14:21:21;98532.84;;;22.11;32.35
61484;BME280;47349;55.640;37.692;2023-04-25T14:23:48;98529.91;;;21.77;32.78
61484;BME280;47349;55.640;37.692;2023-04-25T14:26:17;98523.44;;;21.32;33.27
61484;BME280;47349;55.640;37.692;2023-04-25T14:28:45;98527.78;;;20.97;33.97
61484;BME280;47349;55.640;37.692;2023-04-25T14:31:13;98516.31;;;20.65;34.27
61484;BME280;47349;55.640;37.692;2023-04-25T14:33:40;98506.97;;;20.40;34.62
61484;BME280;47349;55.640;37.692;2023-04-25T14:36:09;98506.69;;;20.26;34.83
61484;BME280;47349;55.640;37.692;2023-04-25T14:38:37;98525.47;;;20.33;34.96
61484;BME280;47349;55.640;37.692;2023-04-25T14:41:04;98495.50;;;20.23;35.21
61484;BME280;47349;55.640;37.692;2023-04-25T14:43:45;98494.88;;;20.00;35.69
61484;BME280;47349;55.640;37.692;2023-04-25T14:46:13;98490.22;;;19.96;36.40
61484;BME280;47349;55.640;37.692;2023-04-25T14:48:54;98483.41;;;19.88;36.45
61484;BME280;47349;55.640;37.692;2023-04-25T14:51:37;98478.47;;;19.75;36.20
61484;BME280;47349;55.640;37.692;2023-04-25T14:54:06;98474.59;;;19.66;36.14
61484;BME280;47349;55.640;37.692;2023-04-25T14:56:38;98459.53;;;19.53;36.18
61484;BME280;47349;55.640;37.692;2023-04-25T14:59:08;98462.06;;;19.60;36.42
61484;BME280;47349;55.640;37.692;2023-04-25T15:01:49;98479.50;;;19.64;36.33
61484;BME280;47349;55.640;37.692;2023-04-25T15:04:32;98468.28;;;19.55;36.55
61484;BME280;47349;55.640;37.692;2023-04-25T15:06:59;98463.94;;;19.59;36.37
61484;BME280;47349;55.640;37.692;2023-04-25T15:09:27;98452.78;;;19.56;36.29
61484;BME280;47349;55.640;37.692;2023-04-25T15:12:10;98442.97;;;19.49;35.72
61484;BME280;47349;55.640;37.692;2023-04-25T15:14:38;98429.34;;;19.39;35.60
61484;BME280;47349;55.640;37.692;2023-04-25T15:17:10;98435.31;;;19.41;35.06
61484;BME280;47349;55.640;37.692;2023-04-25T15:19:57;98431.00;;;19.50;34.95
61484;BME280;47349;55.640;37.692;2023-04-25T15:23:01;98427.22;;;19.51;34.31
61484;BME280;47349;55.640;37.692;2023-04-25T15:25:44;98425.38;;;19.62;34.38
61484;BME280;47349;55.640;37.692;2023-04-25T15:28:25;98407.66;;;19.55;34.01
61484;BME280;47349;55.640;37.692;2023-04-25T15:31:08;98420.81;;;19.68;33.80
61484;BME280;47349;55.640;37.692;2023-04-25T15:33:49;98423.13;;;19.49;33.60
61484;BME280;47349;55.640;37.692;2023-04-25T15:36:21;98398.59;;;19.39;33.61
61484;BME280;47349;55.640;37.692;2023-04-25T15:39:02;98404.09;;;19.49;34.04
61484;BME280;47349;55.640;37.692;2023-04-25T15:41:43;98412.00;;;19.50;33.21
61484;BME280;47349;55.640;37.692;2023-04-25T15:44:31;98416.69;;;19.60;33.61
61484;BME280;47349;55.640;37.692;2023-04-25T15:47:12;98403.59;;;19.57;33.77
61484;BME280;47349;55.640;37.692;2023-04-25T15:49:40;98402.31;;;19.65;33.76
61484;BME280;47349;55.640;37.692;2023-04-25T15:52:21;98388.69;;;19.60;34.12
61484;BME280;47349;55.640;37.692;2023-04-25T15:55:06;98393.06;;;19.66;34.13
61484;BME280;47349;55.640;37.692;2023-04-25T15:57:49;98395.19;;;19.59;34.29
61484;BME280;47349;55.640;37.692;2023-04-25T16:00:31;98399.81;;;19.58;34.24
61484;BME280;47349;55.640;37.692;2023-04-25T16:03:15;98390.25;;;19.50;34.35
61484;BME280;47349;55.640;37.692;2023-04-25T16:05:43;98369.81;;;19.38;34.42
61484;BME280;47349;55.640;37.692;2023-04-25T16:08:25;98371.97;;;19.31;34.51
61484;BME280;47349;55.640;37.692;2023-04-25T16:11:09;98360.78;;;19.22;34.93
61484;BME280;47349;55.640;37.692;2023-04-25T16:13:45;98376.28;;;19.26;35.24
61484;BME280;47349;55.640;37.692;2023-04-25T16:16:13;98375.44;;;19.21;35.08
61484;BME280;47349;55.640;37.692;2023-04-25T16:18:44;98367.16;;;18.95;35.23
61484;BME280;47349;55.640;37.692;2023-04-25T16:21:13;98356.19;;;18.80;35.23
61484;BME280;47349;55.640;37.692;2023-04-25T16:23:43;98376.25;;;18.79;35.75
61484;BME280;47349;55.640;37.692;2023-04-25T16:26:11;98323.06;;;18.46;35.91
61484;BME280;47349;55.640;37.692;2023-04-25T16:28:48;98369.59;;;18.60;36.13
61484;BME280;47349;55.640;37.692;2023-04-25T16:31:18;98357.31;;;18.52;36.20
61484;BME280;47349;55.640;37.692;2023-04-25T16:34:14;98345.03;;;18.44;35.87
61484;BME280;47349;55.640;37.692;2023-04-25T16:36:42;98335.81;;;18.45;35.85
61484;BME280;47349;55.640;37.692;2023-04-25T16:39:23;98337.09;;;18.33;36.04
61484;BME280;47349;55.640;37.692;2023-04-25T16:41:52;98351.13;;;18.24;36.22
61484;BME280;47349;55.640;37.692;2023-04-25T16:44:20;98350.06;;;17.98;36.22
61484;BME280;47349;55.640;37.692;2023-04-25T16:46:47;98371.19;;;17.96;36.49
61484;BME280;47349;55.640;37.692;2023-04-25T16:49:25;98363.56;;;17.93;37.55
61484;BME280;47349;55.640;37.692;2023-04-25T16:51:55;98368.78;;;17.73;41.38
61484;BME280;47349;55.640;37.692;2023-04-25T16:54:30;98383.56;;;17.43;44.10
61484;BME280;47349;55.640;37.692;2023-04-25T16:57:11;98371.59;;;17.39;44.82
61484;BME280;47349;55.640;37.692;2023-04-25T16:59:42;98377.94;;;17.50;45.69
61484;BME280;47349;55.640;37.692;2023-04-25T17:02:19;98381.69;;;17.44;46.86
61484;BME280;47349;55.640;37.692;2023-04-25T17:05:02;98376.34;;;17.27;47.77
61484;BME280;47349;55.640;37.692;2023-04-25T17:07:29;98386.56;;;17.25;47.76
61484;BME280;47349;55.640;37.692;2023-04-25T17:10:06;98386.13;;;17.11;49.54
61484;BME280;47349;55.640;37.692;2023-04-25T17:12:34;98386.16;;;16.94;50.37
61484;BME280;47349;55.640;37.692;2023-04-25T17:15:01;98385.06;;;16.74;51.23
61484;BME280;47349;55.640;37.692;2023-04-25T17:17:30;98398.41;;;16.80;51.26
61484;BME280;47349;55.640;37.692;2023-04-25T17:19:58;98374.88;;;16.64;51.59
61484;BME280;47349;55.640;37.692;2023-04-25T17:22:27;98383.53;;;16.66;51.92
61484;BME280;47349;55.640;37.692;2023-04-25T17:25:09;98380.28;;;16.64;52.42
61484;BME280;47349;55.640;37.692;2023-04-25T17:27:36;98396.44;;;16.59;53.53
61484;BME280;47349;55.640;37.692;2023-04-25T17:30:13;98412.97;;;16.45;54.30
61484;BME280;47349;55.640;37.692;2023-04-25T17:35:30;98410.41;;;16.22;55.94
61484;BME280;47349;55.640;37.692;2023-04-25T17:38:02;98387.91;;;16.05;57.04
61484;BME280;47349;55.640;37.692;2023-04-25T17:40:30;98393.28;;;15.88;59.51
61484;BME280;47349;55.640;37.692;2023-04-25T17:42:58;98406.97;;;15.70;62.25
61484;BME280;47349;55.640;37.692;2023-04-25T17:45:25;98398.94;;;15.34;64.45
61484;BME280;47349;55.640;37.692;2023-04-25T17:48:11;98379.88;;;14.89;67.73
61484;BME280;47349;55.640;37.692;2023-04-25T17:51:14;98363.72;;;14.65;70.15
61484;BME280;47349;55.640;37.692;2023-04-25T17:54:21;98385.63;;;14.69;71.99
61484;BME280;47349;55.640;37.692;2023-04-25T17:57:04;98384.81;;;14.57;72.41
61484;BME280;47349;55.640;37.692;2023-04-25T17:59:34;98382.44;;;14.49;73.31
61484;BME280;47349;55.640;37.692;2023-04-25T18:02:16;98357.44;;;14.42;73.97
61484;BME280;47349;55.640;37.692;2023-04-25T18:04:47;98352.97;;;14.35;74.19
61484;BME280;47349;55.640;37.692;2023-04-25T18:07:20;98378.91;;;14.60;75.02
61484;BME280;47349;55.640;37.692;2023-04-25T18:10:06;98352.50;;;14.38;74.90
61484;BME280;47349;55.640;37.692;2023-04-25T18:12:54;98345.25;;;14.39;74.34
61484;BME280;47349;55.640;37.692;2023-04-25T18:15:36;98366.88;;;14.51;73.60
61484;BME280;47349;55.640;37.692;2023-04-25T18:18:37;98365.66;;;14.47;73.72
61484;BME280;47349;55.640;37.692;2023-04-25T18:21:20;98383.16;;;14.68;74.37
61484;BME280;47349;55.640;37.692;2023-04-25T18:23:49;98372.81;;;14.64;74.61
61484;BME280;47349;55.640;37.692;2023-04-25T18:26:20;98387.28;;;14.70;75.42
61484;BME280;47349;55.640;37.692;2023-04-25T18:28:48;98376.50;;;14.70;76.14
61484;BME280;47349;55.640;37.692;2023-04-25T18:31:16;98353.00;;;14.47;76.13
61484;BME280;47349;55.640;37.692;2023-04-25T18:33:53;98350.28;;;14.35;75.66
61484;BME280;47349;55.640;37.692;2023-04-25T18:36:27;98369.69;;;14.56;75.51
61484;BME280;47349;55.640;37.692;2023-04-25T18:39:11;98372.72;;;14.59;75.96
61484;BME280;47349;55.640;37.692;2023-04-25T18:41:51;98377.53;;;14.69;75.67
61484;BME280;47349;55.640;37.692;2023-04-25T18:44:30;98347.28;;;14.55;75.54
61484;BME280;47349;55.640;37.692;2023-04-25T18:47:13;98336.84;;;14.59;76.39
61484;BME280;47349;55.640;37.692;2023-04-25T18:50:01;98353.25;;;14.69;76.34
61484;BME280;47349;55.640;37.692;2023-04-25T18:52:40;98328.88;;;14.52;76.12
61484;BME280;47349;55.640;37.692;2023-04-25T18:55:22;98339.66;;;14.76;75.24
61484;BME280;47349;55.640;37.692;2023-04-25T18:58:06;98344.13;;;14.70;75.61